createdAt,value
2019-03-19T18:18:51.744Z,12.40
2019-03-19T18:21:21.765Z,9.10
2019-03-19T18:23:50.269Z,8.50
2019-03-19T18:26:18.619Z,8.10
2019-03-19T18:28:46.653Z,7.70
2019-03-19T18:31:14.602Z,7.40
2019-03-19T18:33:42.912Z,7.20
2019-03-19T18:36:10.850Z,6.90
2019-03-19T18:38:39.511Z,6.70
2019-03-19T18:41:07.421Z,6.50
2019-03-19T18:43:36.968Z,6.40
2019-03-19T18:46:04.893Z,6.30
2019-03-19T18:48:33.342Z,6.30
2019-03-19T18:51:04.190Z,6.20
2019-03-19T18:53:37.762Z,6.00
2019-03-19T18:56:07.065Z,6.00
2019-03-19T18:58:37.279Z,5.90
2019-03-19T19:01:05.601Z,5.90
2019-03-19T19:03:33.944Z,5.90
2019-03-19T19:06:08.155Z,5.80
2019-03-19T19:08:38.305Z,5.80
2019-03-19T19:11:06.362Z,5.80
2019-03-19T19:13:34.034Z,5.80
2019-03-19T19:16:02.789Z,5.80
2019-03-19T19:21:50.706Z,5.70
2019-03-19T19:24:21.645Z,5.70
2019-03-19T19:26:53.309Z,5.80
2019-03-19T19:29:27.830Z,5.80
2019-03-19T19:31:57.940Z,5.70
2019-03-19T19:34:29.554Z,5.60
2019-03-19T19:36:58.741Z,5.60
2019-03-19T19:39:29.813Z,5.60
2019-03-19T19:41:59.721Z,5.70
2019-03-19T19:44:29.825Z,5.60
2019-03-19T19:46:57.997Z,5.60
2019-03-19T19:49:26.644Z,5.60
2019-03-19T19:51:54.697Z,5.50
2019-03-19T19:54:24.218Z,5.60
2019-03-19T19:56:53.086Z,5.50
2019-03-19T19:59:21.230Z,5.50
2019-03-19T20:01:49.009Z,5.60
2019-03-19T20:04:17.409Z,5.60
2019-03-19T20:06:45.014Z,5.50
2019-03-19T20:09:14.974Z,5.50
2019-03-19T20:11:42.997Z,5.50
2019-03-19T20:14:11.330Z,5.50
2019-03-19T20:16:40.732Z,5.40
2019-03-19T20:19:08.289Z,5.40
2019-03-19T20:21:36.731Z,5.40
2019-03-19T20:24:05.407Z,5.50
2019-03-19T20:26:33.350Z,5.40
2019-03-19T20:29:02.016Z,5.50
2019-03-19T20:31:29.723Z,5.50
2019-03-19T20:33:57.432Z,5.50
2019-03-19T20:36:25.650Z,5.50
2019-03-19T20:38:53.279Z,5.40
2019-03-19T20:41:21.373Z,5.40
2019-03-19T20:43:49.730Z,5.30
2019-03-19T20:46:18.493Z,5.40
2019-03-19T20:48:46.137Z,5.40
2019-03-19T20:51:14.097Z,5.40
2019-03-19T20:53:41.808Z,5.40
2019-03-19T20:56:10.167Z,5.50
2019-03-19T20:58:43.434Z,5.50
2019-03-19T21:01:08.588Z,5.40
2019-03-19T21:03:39.279Z,5.40
2019-03-19T21:06:13.223Z,5.40
2019-03-19T21:08:41.287Z,5.40
2019-03-19T21:11:09.174Z,5.40
2019-03-19T21:13:36.912Z,5.40
2019-03-19T21:16:04.952Z,5.40
2019-03-19T21:18:32.853Z,5.50
2019-03-19T21:21:00.890Z,5.40
2019-03-19T21:23:34.816Z,5.30
2019-03-19T21:26:05.380Z,5.40
2019-03-19T21:28:33.045Z,5.40
2019-03-19T21:31:00.717Z,5.40
2019-03-19T21:33:28.630Z,5.40
2019-03-19T21:35:56.379Z,5.40
2019-03-19T21:38:24.043Z,5.40
2019-03-19T21:40:52.374Z,5.30
2019-03-19T21:43:23.483Z,5.30
2019-03-19T21:45:54.382Z,5.30
2019-03-19T21:48:23.327Z,5.30
2019-03-19T21:50:51.296Z,5.30
2019-03-19T21:53:20.334Z,5.20
2019-03-19T21:55:50.590Z,5.20
2019-03-19T21:58:18.810Z,5.20
2019-03-19T22:00:56.560Z,5.20
2019-03-19T22:03:25.984Z,5.10
2019-03-19T22:05:55.098Z,5.10
2019-03-19T22:08:25.154Z,5.00
2019-03-19T22:10:56.665Z,5.00
2019-03-19T22:13:26.481Z,4.80
2019-03-19T22:15:55.609Z,4.70
2019-03-19T22:18:24.024Z,4.60
2019-03-19T22:20:52.991Z,4.50
2019-03-19T22:23:32.141Z,4.40
2019-03-19T22:26:00.246Z,4.30
2019-03-19T22:28:39.252Z,4.30
2019-03-19T22:31:10.702Z,4.10
2019-03-19T22:34:14.067Z,4.10
2019-03-19T22:36:37.583Z,4.00
2019-03-19T22:39:08.623Z,4.00
2019-03-19T22:41:44.719Z,3.90
2019-03-19T22:44:10.065Z,3.80
2019-03-19T22:46:37.648Z,3.90
2019-03-19T22:49:05.360Z,3.90
2019-03-19T22:51:32.857Z,3.90
2019-03-19T22:54:00.387Z,3.90
2019-03-19T22:56:31.917Z,3.90
2019-03-19T22:59:04.472Z,3.90
2019-03-19T23:01:34.620Z,4.00
2019-03-19T23:04:05.810Z,3.90
2019-03-19T23:06:34.229Z,4.00
2019-03-19T23:09:03.396Z,4.00
2019-03-19T23:11:31.883Z,4.00
2019-03-19T23:14:00.557Z,4.00
2019-03-19T23:16:27.956Z,4.00
2019-03-19T23:18:55.276Z,4.00
2019-03-19T23:21:23.657Z,4.00
2019-03-19T23:23:51.429Z,4.00
2019-03-19T23:26:19.908Z,4.00
2019-03-19T23:28:48.079Z,4.00
2019-03-19T23:31:15.753Z,4.00
2019-03-19T23:33:43.414Z,3.90
2019-03-19T23:36:11.670Z,3.90
2019-03-19T23:38:39.256Z,3.80
2019-03-19T23:41:06.779Z,3.80
2019-03-19T23:43:35.367Z,3.80
2019-03-19T23:46:03.538Z,3.70
2019-03-19T23:48:31.488Z,3.70
2019-03-19T23:50:58.962Z,3.70
2019-03-19T23:53:26.733Z,3.60
2019-03-19T23:55:54.484Z,3.60
2019-03-19T23:58:22.099Z,3.60
